sensor_id;sensor_type;location;lat;lon;timestamp;temperature;humidity
32614;DHT22;19031;51.400;6.770;2023-04-15T00:00:15;7.50;99.90
32614;DHT22;19031;51.400;6.770;2023-04-15T00:02:42;7.60;99.90
32614;DHT22;19031;51.400;6.770;2023-04-15T00:05:08;7.50;99.90
32614;DHT22;19031;51.400;6.770;2023-04-15T00:07:34;7.60;99.90
32614;DHT22;19031;51.400;6.770;2023-04-15T00:10:00;7.50;99.90
32614;DHT22;19031;51.400;6.770;2023-04-15T00:12:26;7.50;99.90
32614;DHT22;19031;51.400;6.770;2023-04-15T00:14:52;7.40;99.90
32614;DHT22;19031;51.400;6.770;2023-04-15T00:17:19;7.40;99.90
32614;DHT22;19031;51.400;6.770;2023-04-15T00:19:44;7.40;99.90
32614;DHT22;19031;51.400;6.770;2023-04-15T00:22:10;7.30;99.90
32614;DHT22;19031;51.400;6.770;2023-04-15T00:24:37;7.30;99.90
32614;DHT22;19031;51.400;6.770;2023-04-15T00:27:02;7.20;99.90
32614;DHT22;19031;51.400;6.770;2023-04-15T00:29:28;7.20;99.90
32614;DHT22;19031;51.400;6.770;2023-04-15T00:31:55;7.20;99.90
32614;DHT22;19031;51.400;6.770;2023-04-15T00:34:21;7.20;99.90
32614;DHT22;19031;51.400;6.770;2023-04-15T00:36:47;7.20;99.90
32614;DHT22;19031;51.400;6.770;2023-04-15T00:39:13;7.20;99.90
32614;DHT22;19031;51.400;6.770;2023-04-15T00:41:40;7.20;99.90
32614;DHT22;19031;51.400;6.770;2023-04-15T00:44:06;7.10;99.90
32614;DHT22;19031;51.400;6.770;2023-04-15T00:46:34;7.10;99.90
32614;DHT22;19031;51.400;6.770;2023-04-15T00:49:03;7.20;99.90
32614;DHT22;19031;51.400;6.770;2023-04-15T00:51:28;7.20;99.90
32614;DHT22;19031;51.400;6.770;2023-04-15T00:53:56;7.20;99.90
32614;DHT22;19031;51.400;6.770;2023-04-15T00:56:22;7.20;99.90
32614;DHT22;19031;51.400;6.770;2023-04-15T00:58:49;7.10;99.90
32614;DHT22;19031;51.400;6.770;2023-04-15T01:01:17;7.20;99.90
32614;DHT22;19031;51.400;6.770;2023-04-15T01:03:46;7.10;99.90
32614;DHT22;19031;51.400;6.770;2023-04-15T01:06:12;7.00;99.90
32614;DHT22;19031;51.400;6.770;2023-04-15T01:08:38;7.10;99.90
32614;DHT22;19031;51.400;6.770;2023-04-15T01:11:04;7.00;99.90
32614;DHT22;19031;51.400;6.770;2023-04-15T01:13:30;7.00;99.90
32614;DHT22;19031;51.400;6.770;2023-04-15T01:15:58;7.00;99.90
32614;DHT22;19031;51.400;6.770;2023-04-15T01:18:23;7.00;99.90
32614;DHT22;19031;51.400;6.770;2023-04-15T01:20:49;6.90;99.90
32614;DHT22;19031;51.400;6.770;2023-04-15T01:23:15;6.80;99.90
32614;DHT22;19031;51.400;6.770;2023-04-15T01:25:42;6.90;99.90
32614;DHT22;19031;51.400;6.770;2023-04-15T01:28:09;6.90;99.90
32614;DHT22;19031;51.400;6.770;2023-04-15T01:30:35;6.90;99.90
32614;DHT22;19031;51.400;6.770;2023-04-15T01:33:02;6.90;99.90
32614;DHT22;19031;51.400;6.770;2023-04-15T01:35:27;6.90;99.90
32614;DHT22;19031;51.400;6.770;2023-04-15T01:37:54;6.90;99.90
32614;DHT22;19031;51.400;6.770;2023-04-15T01:40:22;6.80;99.90
32614;DHT22;19031;51.400;6.770;2023-04-15T01:42:47;6.80;99.90
32614;DHT22;19031;51.400;6.770;2023-04-15T01:45:13;6.90;99.90
32614;DHT22;19031;51.400;6.770;2023-04-15T01:47:38;6.90;99.90
32614;DHT22;19031;51.400;6.770;2023-04-15T01:50:05;6.80;99.90
32614;DHT22;19031;51.400;6.770;2023-04-15T01:52:31;6.90;99.90
32614;DHT22;19031;51.400;6.770;2023-04-15T01:54:57;6.80;99.90
32614;DHT22;19031;51.400;6.770;2023-04-15T01:57:22;6.80;99.90
32614;DHT22;19031;51.400;6.770;2023-04-15T01:59:48;6.80;99.90
32614;DHT22;19031;51.400;6.770;2023-04-15T02:02:13;6.80;99.90
32614;DHT22;19031;51.400;6.770;2023-04-15T02:04:39;6.80;99.90
32614;DHT22;19031;51.400;6.770;2023-04-15T02:07:05;6.80;99.90
32614;DHT22;19031;51.400;6.770;2023-04-15T02:09:31;6.80;99.90
32614;DHT22;19031;51.400;6.770;2023-04-15T02:11:57;6.80;99.90
32614;DHT22;19031;51.400;6.770;2023-04-15T02:14:22;6.80;99.90
32614;DHT22;19031;51.400;6.770;2023-04-15T02:16:48;6.80;99.90
32614;DHT22;19031;51.400;6.770;2023-04-15T02:19:13;6.80;99.90
32614;DHT22;19031;51.400;6.770;2023-04-15T02:21:39;6.70;99.90
32614;DHT22;19031;51.400;6.770;2023-04-15T02:24:06;6.70;99.90
32614;DHT22;19031;51.400;6.770;2023-04-15T02:26:31;6.70;99.90
32614;DHT22;19031;51.400;6.770;2023-04-15T02:28:58;6.70;99.90
32614;DHT22;19031;51.400;6.770;2023-04-15T02:31:24;6.70;99.90
32614;DHT22;19031;51.400;6.770;2023-04-15T02:33:50;6.70;99.90
32614;DHT22;19031;51.400;6.770;2023-04-15T02:36:16;6.60;99.90
32614;DHT22;19031;51.400;6.770;2023-04-15T02:38:42;6.60;99.90
32614;DHT22;19031;51.400;6.770;2023-04-15T02:41:09;6.60;99.90
32614;DHT22;19031;51.400;6.770;2023-04-15T02:43:34;6.60;99.90
32614;DHT22;19031;51.400;6.770;2023-04-15T02:46:00;6.70;99.90
32614;DHT22;19031;51.400;6.770;2023-04-15T02:48:26;6.70;99.90
32614;DHT22;19031;51.400;6.770;2023-04-15T02:50:51;6.70;99.90
32614;DHT22;19031;51.400;6.770;2023-04-15T02:53:17;6.60;99.90
32614;DHT22;19031;51.400;6.770;2023-04-15T02:55:44;6.50;99.90
32614;DHT22;19031;51.400;6.770;2023-04-15T02:58:10;6.50;99.90
32614;DHT22;19031;51.400;6.770;2023-04-15T03:00:36;6.50;99.90
32614;DHT22;19031;51.400;6.770;2023-04-15T03:03:02;6.40;99.90
32614;DHT22;19031;51.400;6.770;2023-04-15T03:05:28;6.30;99.90
32614;DHT22;19031;51.400;6.770;2023-04-15T03:07:54;6.30;99.90
32614;DHT22;19031;51.400;6.770;2023-04-15T03:10:20;6.30;99.90
32614;DHT22;19031;51.400;6.770;2023-04-15T03:12:46;6.20;99.90
32614;DHT22;19031;51.400;6.770;2023-04-15T03:15:11;6.20;99.90
32614;DHT22;19031;51.400;6.770;2023-04-15T03:17:37;6.20;99.90
32614;DHT22;19031;51.400;6.770;2023-04-15T03:20:04;6.20;99.90
32614;DHT22;19031;51.400;6.770;2023-04-15T03:22:33;6.20;99.90
32614;DHT22;19031;51.400;6.770;2023-04-15T03:24:59;6.10;99.90
32614;DHT22;19031;51.400;6.770;2023-04-15T03:27:25;6.10;99.90
32614;DHT22;19031;51.400;6.770;2023-04-15T03:29:50;6.10;99.90
32614;DHT22;19031;51.400;6.770;2023-04-15T03:32:16;6.10;99.90
32614;DHT22;19031;51.400;6.770;2023-04-15T03:34:42;6.10;99.90
32614;DHT22;19031;51.400;6.770;2023-04-15T03:37:08;6.10;99.90
32614;DHT22;19031;51.400;6.770;2023-04-15T03:39:34;6.10;99.90
32614;DHT22;19031;51.400;6.770;2023-04-15T03:42:00;6.10;99.90
32614;DHT22;19031;51.400;6.770;2023-04-15T03:44:26;6.20;99.90
32614;DHT22;19031;51.400;6.770;2023-04-15T03:46:52;6.20;99.90
32614;DHT22;19031;51.400;6.770;2023-04-15T03:49:18;6.20;99.90
32614;DHT22;19031;51.400;6.770;2023-04-15T03:51:44;6.20;99.90
32614;DHT22;19031;51.400;6.770;2023-04-15T03:54:09;6.10;99.90
32614;DHT22;19031;51.400;6.770;2023-04-15T03:56:36;6.20;99.90
32614;DHT22;19031;51.400;6.770;2023-04-15T03:59:01;6.20;99.90
32614;DHT22;19031;51.400;6.770;2023-04-15T04:01:27;6.20;99.90
32614;DHT22;19031;51.400;6.770;2023-04-15T04:03:52;6.10;99.90
32614;DHT22;19031;51.400;6.770;2023-04-15T04:06:18;6.10;99.90
32614;DHT22;19031;51.400;6.770;2023-04-15T04:08:44;6.10;99.90
32614;DHT22;19031;51.400;6.770;2023-04-15T04:11:09;6.10;99.90
32614;DHT22;19031;51.400;6.770;2023-04-15T04:13:35;6.00;99.90
32614;DHT22;19031;51.400;6.770;2023-04-15T04:16:01;6.00;99.90
32614;DHT22;19031;51.400;6.770;2023-04-15T04:18:27;6.00;99.90
32614;DHT22;19031;51.400;6.770;2023-04-15T04:20:52;6.00;99.90
32614;DHT22;19031;51.400;6.770;2023-04-15T04:23:18;6.10;99.90
32614;DHT22;19031;51.400;6.770;2023-04-15T04:25:43;6.00;99.90
32614;DHT22;19031;51.400;6.770;2023-04-15T04:28:09;6.10;99.90
32614;DHT22;19031;51.400;6.770;2023-04-15T04:30:36;6.00;99.90
32614;DHT22;19031;51.400;6.770;2023-04-15T04:33:02;5.90;99.90
32614;DHT22;19031;51.400;6.770;2023-04-15T04:35:28;6.00;99.90
32614;DHT22;19031;51.400;6.770;2023-04-15T04:37:53;6.00;99.90
32614;DHT22;19031;51.400;6.770;2023-04-15T04:40:19;5.90;99.90
32614;DHT22;19031;51.400;6.770;2023-04-15T04:42:45;5.90;99.90
32614;DHT22;19031;51.400;6.770;2023-04-15T04:45:10;5.90;99.90
32614;DHT22;19031;51.400;6.770;2023-04-15T04:47:36;5.80;99.90
32614;DHT22;19031;51.400;6.770;2023-04-15T04:50:02;5.90;99.90
32614;DHT22;19031;51.400;6.770;2023-04-15T04:52:27;5.90;99.90
32614;DHT22;19031;51.400;6.770;2023-04-15T04:54:53;5.90;99.90
32614;DHT22;19031;51.400;6.770;2023-04-15T04:57:19;5.80;99.90
32614;DHT22;19031;51.400;6.770;2023-04-15T04:59:45;6.00;99.90
32614;DHT22;19031;51.400;6.770;2023-04-15T05:02:10;6.00;99.90
32614;DHT22;19031;51.400;6.770;2023-04-15T05:04:36;6.00;99.90
32614;DHT22;19031;51.400;6.770;2023-04-15T05:07:02;6.00;99.90
32614;DHT22;19031;51.400;6.770;2023-04-15T05:09:27;6.00;99.90
32614;DHT22;19031;51.400;6.770;2023-04-15T05:11:54;6.00;99.90
32614;DHT22;19031;51.400;6.770;2023-04-15T05:14:20;6.00;99.90
32614;DHT22;19031;51.400;6.770;2023-04-15T05:16:46;6.10;99.90
32614;DHT22;19031;51.400;6.770;2023-04-15T05:19:11;6.10;99.90
32614;DHT22;19031;51.400;6.770;2023-04-15T05:21:37;6.10;99.90
32614;DHT22;19031;51.400;6.770;2023-04-15T05:24:03;6.00;99.90
32614;DHT22;19031;51.400;6.770;2023-04-15T05:26:28;6.00;99.90
32614;DHT22;19031;51.400;6.770;2023-04-15T05:28:54;6.10;99.90
32614;DHT22;19031;51.400;6.770;2023-04-15T05:31:19;6.00;99.90
32614;DHT22;19031;51.400;6.770;2023-04-15T05:33:45;6.10;99.90
32614;DHT22;19031;51.400;6.770;2023-04-15T05:36:11;6.10;99.90
32614;DHT22;19031;51.400;6.770;2023-04-15T05:38:37;6.20;99.90
32614;DHT22;19031;51.400;6.770;2023-04-15T05:41:02;6.30;99.90
32614;DHT22;19031;51.400;6.770;2023-04-15T05:43:28;6.20;99.90
32614;DHT22;19031;51.400;6.770;2023-04-15T05:45:54;6.40;99.90
32614;DHT22;19031;51.400;6.770;2023-04-15T05:48:20;6.50;99.90
32614;DHT22;19031;51.400;6.770;2023-04-15T05:50:46;6.50;99.90
32614;DHT22;19031;51.400;6.770;2023-04-15T05:53:12;6.60;99.90
32614;DHT22;19031;51.400;6.770;2023-04-15T05:55:37;6.70;99.90
32614;DHT22;19031;51.400;6.770;2023-04-15T05:58:03;6.80;99.90
32614;DHT22;19031;51.400;6.770;2023-04-15T06:00:28;6.80;99.90
32614;DHT22;19031;51.400;6.770;2023-04-15T06:02:55;6.90;99.90
32614;DHT22;19031;51.400;6.770;2023-04-15T06:05:22;7.00;99.90
32614;DHT22;19031;51.400;6.770;2023-04-15T06:07:48;7.10;99.90
32614;DHT22;19031;51.400;6.770;2023-04-15T06:10:14;7.20;99.90
32614;DHT22;19031;51.400;6.770;2023-04-15T06:12:40;7.30;99.90
32614;DHT22;19031;51.400;6.770;2023-04-15T06:15:06;7.40;99.90
32614;DHT22;19031;51.400;6.770;2023-04-15T06:17:34;7.50;99.90
32614;DHT22;19031;51.400;6.770;2023-04-15T06:19:59;7.60;99.90
32614;DHT22;19031;51.400;6.770;2023-04-15T06:22:25;7.80;99.90
32614;DHT22;19031;51.400;6.770;2023-04-15T06:24:51;7.80;99.90
32614;DHT22;19031;51.400;6.770;2023-04-15T06:27:17;7.90;99.90
32614;DHT22;19031;51.400;6.770;2023-04-15T06:29:42;8.10;99.90
32614;DHT22;19031;51.400;6.770;2023-04-15T06:32:08;8.20;99.90
32614;DHT22;19031;51.400;6.770;2023-04-15T06:34:34;8.30;99.90
32614;DHT22;19031;51.400;6.770;2023-04-15T06:36:59;8.50;99.90
32614;DHT22;19031;51.400;6.770;2023-04-15T06:39:25;8.60;99.90
32614;DHT22;19031;51.400;6.770;2023-04-15T06:41:51;8.80;99.90
32614;DHT22;19031;51.400;6.770;2023-04-15T06:44:17;9.00;99.90
32614;DHT22;19031;51.400;6.770;2023-04-15T06:46:43;9.00;99.90
32614;DHT22;19031;51.400;6.770;2023-04-15T06:49:09;9.30;99.90
32614;DHT22;19031;51.400;6.770;2023-04-15T06:51:36;9.40;99.90
32614;DHT22;19031;51.400;6.770;2023-04-15T06:54:02;9.50;99.90
32614;DHT22;19031;51.400;6.770;2023-04-15T06:56:33;9.70;99.90
32614;DHT22;19031;51.400;6.770;2023-04-15T06:58:58;9.90;99.90
32614;DHT22;19031;51.400;6.770;2023-04-15T07:01:24;10.00;99.90
32614;DHT22;19031;51.400;6.770;2023-04-15T07:03:50;10.20;99.90
32614;DHT22;19031;51.400;6.770;2023-04-15T07:06:16;10.30;99.90
32614;DHT22;19031;51.400;6.770;2023-04-15T07:08:41;10.50;99.90
32614;DHT22;19031;51.400;6.770;2023-04-15T07:11:07;10.70;99.90
32614;DHT22;19031;51.400;6.770;2023-04-15T07:13:33;10.90;99.90
32614;DHT22;19031;51.400;6.770;2023-04-15T07:15:58;11.10;99.90
32614;DHT22;19031;51.400;6.770;2023-04-15T07:18:24;11.10;99.90
32614;DHT22;19031;51.400;6.770;2023-04-15T07:20:50;11.40;99.90
32614;DHT22;19031;51.400;6.770;2023-04-15T07:23:16;11.50;99.90
32614;DHT22;19031;51.400;6.770;2023-04-15T07:25:41;11.70;99.90
32614;DHT22;19031;51.400;6.770;2023-04-15T07:28:07;11.80;99.90
32614;DHT22;19031;51.400;6.770;2023-04-15T07:30:32;11.80;99.90
32614;DHT22;19031;51.400;6.770;2023-04-15T07:32:58;12.00;99.90
32614;DHT22;19031;51.400;6.770;2023-04-15T07:35:24;12.10;99.90
32614;DHT22;19031;51.400;6.770;2023-04-15T07:37:50;12.00;99.90
32614;DHT22;19031;51.400;6.770;2023-04-15T07:40:16;11.90;99.90
32614;DHT22;19031;51.400;6.770;2023-04-15T07:42:43;11.90;99.90
32614;DHT22;19031;51.400;6.770;2023-04-15T07:45:09;11.90;99.90
32614;DHT22;19031;51.400;6.770;2023-04-15T07:47:34;12.00;99.90
32614;DHT22;19031;51.400;6.770;2023-04-15T07:50:00;12.00;99.90
32614;DHT22;19031;51.400;6.770;2023-04-15T07:52:26;12.10;99.90
32614;DHT22;19031;51.400;6.770;2023-04-15T07:54:52;12.20;99.90
32614;DHT22;19031;51.400;6.770;2023-04-15T07:57:18;12.10;99.90
32614;DHT22;19031;51.400;6.770;2023-04-15T07:59:43;11.90;99.90
32614;DHT22;19031;51.400;6.770;2023-04-15T08:02:10;11.70;99.90
32614;DHT22;19031;51.400;6.770;2023-04-15T08:04:36;11.90;99.90
32614;DHT22;19031;51.400;6.770;2023-04-15T08:07:03;11.70;99.90
32614;DHT22;19031;51.400;6.770;2023-04-15T08:09:29;11.90;99.90
32614;DHT22;19031;51.400;6.770;2023-04-15T08:11:55;12.20;99.90
32614;DHT22;19031;51.400;6.770;2023-04-15T08:14:21;12.40;99.90
32614;DHT22;19031;51.400;6.770;2023-04-15T08:16:47;12.60;99.90
32614;DHT22;19031;51.400;6.770;2023-04-15T08:19:12;12.70;99.90
32614;DHT22;19031;51.400;6.770;2023-04-15T08:21:38;12.80;99.90
32614;DHT22;19031;51.400;6.770;2023-04-15T08:24:05;12.70;99.90
32614;DHT22;19031;51.400;6.770;2023-04-15T08:26:31;12.60;99.90
32614;DHT22;19031;51.400;6.770;2023-04-15T08:28:57;12.90;99.90
32614;DHT22;19031;51.400;6.770;2023-04-15T08:31:22;13.20;99.90
32614;DHT22;19031;51.400;6.770;2023-04-15T08:33:48;13.30;99.90
32614;DHT22;19031;51.400;6.770;2023-04-15T08:36:16;13.30;99.90
32614;DHT22;19031;51.400;6.770;2023-04-15T08:38:43;13.00;99.90
32614;DHT22;19031;51.400;6.770;2023-04-15T08:41:22;12.90;99.90
32614;DHT22;19031;51.400;6.770;2023-04-15T08:43:52;13.20;99.90
32614;DHT22;19031;51.400;6.770;2023-04-15T08:46:19;13.30;99.90
32614;DHT22;19031;51.400;6.770;2023-04-15T08:48:47;13.30;99.90
32614;DHT22;19031;51.400;6.770;2023-04-15T08:51:13;13.60;99.90
32614;DHT22;19031;51.400;6.770;2023-04-15T08:53:42;13.50;99.90
32614;DHT22;19031;51.400;6.770;2023-04-15T08:56:08;13.20;99.90
32614;DHT22;19031;51.400;6.770;2023-04-15T08:58:36;13.40;99.90
32614;DHT22;19031;51.400;6.770;2023-04-15T09:01:02;13.50;99.90
32614;DHT22;19031;51.400;6.770;2023-04-15T09:03:28;13.40;99.90
32614;DHT22;19031;51.400;6.770;2023-04-15T09:05:54;13.30;99.90
32614;DHT22;19031;51.400;6.770;2023-04-15T09:08:21;13.40;99.90
32614;DHT22;19031;51.400;6.770;2023-04-15T09:10:47;13.70;99.90
32614;DHT22;19031;51.400;6.770;2023-04-15T09:13:13;14.00;99.90
32614;DHT22;19031;51.400;6.770;2023-04-15T09:15:38;14.20;99.90
32614;DHT22;19031;51.400;6.770;2023-04-15T09:18:05;14.40;99.90
32614;DHT22;19031;51.400;6.770;2023-04-15T09:20:40;15.00;99.90
32614;DHT22;19031;51.400;6.770;2023-04-15T09:23:13;15.40;99.90
32614;DHT22;19031;51.400;6.770;2023-04-15T09:25:40;15.40;99.90
32614;DHT22;19031;51.400;6.770;2023-04-15T09:28:09;15.30;99.90
32614;DHT22;19031;51.400;6.770;2023-04-15T09:30:35;14.90;99.90
32614;DHT22;19031;51.400;6.770;2023-04-15T09:33:02;14.70;99.90
32614;DHT22;19031;51.400;6.770;2023-04-15T09:35:33;14.60;99.90
32614;DHT22;19031;51.400;6.770;2023-04-15T09:38:09;14.50;99.90
32614;DHT22;19031;51.400;6.770;2023-04-15T09:40:41;14.40;99.90
32614;DHT22;19031;51.400;6.770;2023-04-15T09:43:08;15.00;99.90
32614;DHT22;19031;51.400;6.770;2023-04-15T09:45:35;15.40;99.90
32614;DHT22;19031;51.400;6.770;2023-04-15T09:48:20;15.50;99.90
32614;DHT22;19031;51.400;6.770;2023-04-15T09:50:47;15.40;99.90
32614;DHT22;19031;51.400;6.770;2023-04-15T09:53:21;15.00;99.90
32614;DHT22;19031;51.400;6.770;2023-04-15T09:55:54;14.50;99.90
32614;DHT22;19031;51.400;6.770;2023-04-15T09:58:21;14.40;99.90
32614;DHT22;19031;51.400;6.770;2023-04-15T10:00:48;14.50;99.90
32614;DHT22;19031;51.400;6.770;2023-04-15T10:03:19;14.20;99.90
32614;DHT22;19031;51.400;6.770;2023-04-15T10:05:47;14.20;99.90
32614;DHT22;19031;51.400;6.770;2023-04-15T10:08:16;14.10;99.90
32614;DHT22;19031;51.400;6.770;2023-04-15T10:10:42;14.40;99.90
32614;DHT22;19031;51.400;6.770;2023-04-15T10:13:09;14.20;99.90
32614;DHT22;19031;51.400;6.770;2023-04-15T10:15:35;14.40;99.90
32614;DHT22;19031;51.400;6.770;2023-04-15T10:18:02;14.20;99.90
32614;DHT22;19031;51.400;6.770;2023-04-15T10:20:29;14.10;99.90
32614;DHT22;19031;51.400;6.770;2023-04-15T10:22:55;14.10;99.90
32614;DHT22;19031;51.400;6.770;2023-04-15T10:25:22;14.10;99.90
32614;DHT22;19031;51.400;6.770;2023-04-15T10:27:50;13.90;99.90
32614;DHT22;19031;51.400;6.770;2023-04-15T10:30:17;13.80;99.90
32614;DHT22;19031;51.400;6.770;2023-04-15T10:32:43;13.80;99.90
32614;DHT22;19031;51.400;6.770;2023-04-15T10:35:10;14.10;99.90
32614;DHT22;19031;51.400;6.770;2023-04-15T10:37:37;14.30;99.90
32614;DHT22;19031;51.400;6.770;2023-04-15T10:42:57;14.70;99.90
32614;DHT22;19031;51.400;6.770;2023-04-15T10:45:25;15.00;99.90
32614;DHT22;19031;51.400;6.770;2023-04-15T10:47:54;14.90;99.90
32614;DHT22;19031;51.400;6.770;2023-04-15T10:50:20;14.40;99.90
32614;DHT22;19031;51.400;6.770;2023-04-15T10:52:50;14.40;99.90
32614;DHT22;19031;51.400;6.770;2023-04-15T10:55:28;14.30;99.90
32614;DHT22;19031;51.400;6.770;2023-04-15T10:58:00;14.30;99.90
32614;DHT22;19031;51.400;6.770;2023-04-15T11:00:28;14.00;99.90
32614;DHT22;19031;51.400;6.770;2023-04-15T11:02:56;13.90;99.90
32614;DHT22;19031;51.400;6.770;2023-04-15T11:08:09;13.80;99.90
32614;DHT22;19031;51.400;6.770;2023-04-15T11:13:14;14.10;99.90
32614;DHT22;19031;51.400;6.770;2023-04-15T11:15:45;14.30;99.90
32614;DHT22;19031;51.400;6.770;2023-04-15T11:20:43;14.00;99.90
32614;DHT22;19031;51.400;6.770;2023-04-15T11:23:13;14.10;99.90
32614;DHT22;19031;51.400;6.770;2023-04-15T11:25:39;14.00;99.90
32614;DHT22;19031;51.400;6.770;2023-04-15T11:28:05;14.00;99.90
32614;DHT22;19031;51.400;6.770;2023-04-15T11:30:34;13.90;99.90
32614;DHT22;19031;51.400;6.770;2023-04-15T11:33:01;13.90;99.90
32614;DHT22;19031;51.400;6.770;2023-04-15T11:35:28;13.80;99.90
32614;DHT22;19031;51.400;6.770;2023-04-15T11:37:54;13.60;99.90
32614;DHT22;19031;51.400;6.770;2023-04-15T11:40:24;13.50;99.90
32614;DHT22;19031;51.400;6.770;2023-04-15T11:43:04;13.60;99.90
32614;DHT22;19031;51.400;6.770;2023-04-15T11:45:30;13.70;99.90
32614;DHT22;19031;51.400;6.770;2023-04-15T11:48:04;13.90;99.90
32614;DHT22;19031;51.400;6.770;2023-04-15T11:50:30;14.00;99.90
32614;DHT22;19031;51.400;6.770;2023-04-15T11:52:58;14.80;99.90
32614;DHT22;19031;51.400;6.770;2023-04-15T11:55:25;14.80;99.90
32614;DHT22;19031;51.400;6.770;2023-04-15T11:58:11;14.40;99.90
32614;DHT22;19031;51.400;6.770;2023-04-15T12:00:39;14.20;99.90
32614;DHT22;19031;51.400;6.770;2023-04-15T12:03:12;14.10;99.90
32614;DHT22;19031;51.400;6.770;2023-04-15T12:06:04;14.00;99.90
32614;DHT22;19031;51.400;6.770;2023-04-15T12:16:35;13.80;99.90
32614;DHT22;19031;51.400;6.770;2023-04-15T12:19:06;13.70;99.90
32614;DHT22;19031;51.400;6.770;2023-04-15T12:21:34;13.40;99.90
32614;DHT22;19031;51.400;6.770;2023-04-15T12:24:03;13.40;99.90
32614;DHT22;19031;51.400;6.770;2023-04-15T12:26:32;13.20;99.90
32614;DHT22;19031;51.400;6.770;2023-04-15T12:29:01;13.00;99.90
32614;DHT22;19031;51.400;6.770;2023-04-15T12:31:27;12.90;99.90
32614;DHT22;19031;51.400;6.770;2023-04-15T12:33:57;13.00;99.90
32614;DHT22;19031;51.400;6.770;2023-04-15T12:36:23;13.10;99.90
32614;DHT22;19031;51.400;6.770;2023-04-15T12:38:49;13.30;99.90
32614;DHT22;19031;51.400;6.770;2023-04-15T12:41:15;13.50;99.90
32614;DHT22;19031;51.400;6.770;2023-04-15T12:43:43;13.50;99.90
32614;DHT22;19031;51.400;6.770;2023-04-15T12:46:08;13.30;99.90
32614;DHT22;19031;51.400;6.770;2023-04-15T12:48:34;13.40;99.90
32614;DHT22;19031;51.400;6.770;2023-04-15T12:51:00;13.20;99.90
32614;DHT22;19031;51.400;6.770;2023-04-15T12:53:26;12.90;99.90
32614;DHT22;19031;51.400;6.770;2023-04-15T12:55:52;12.90;99.90
32614;DHT22;19031;51.400;6.770;2023-04-15T12:58:18;12.80;99.90
32614;DHT22;19031;51.400;6.770;2023-04-15T13:00:44;12.90;99.90
32614;DHT22;19031;51.400;6.770;2023-04-15T13:03:09;13.00;99.90
32614;DHT22;19031;51.400;6.770;2023-04-15T13:05:35;13.10;99.90
32614;DHT22;19031;51.400;6.770;2023-04-15T13:08:01;13.10;99.90
32614;DHT22;19031;51.400;6.770;2023-04-15T13:10:28;13.10;99.90
32614;DHT22;19031;51.400;6.770;2023-04-15T13:12:54;13.10;99.90
32614;DHT22;19031;51.400;6.770;2023-04-15T13:15:21;13.20;99.90
32614;DHT22;19031;51.400;6.770;2023-04-15T13:17:47;13.00;99.90
32614;DHT22;19031;51.400;6.770;2023-04-15T13:20:13;12.80;99.90
32614;DHT22;19031;51.400;6.770;2023-04-15T13:22:39;12.70;99.90
32614;DHT22;19031;51.400;6.770;2023-04-15T13:25:06;12.50;99.90
32614;DHT22;19031;51.400;6.770;2023-04-15T13:27:32;12.30;99.90
32614;DHT22;19031;51.400;6.770;2023-04-15T13:29:58;12.40;99.90
32614;DHT22;19031;51.400;6.770;2023-04-15T13:32:24;12.20;99.90
32614;DHT22;19031;51.400;6.770;2023-04-15T13:34:50;12.20;99.90
32614;DHT22;19031;51.400;6.770;2023-04-15T13:37:16;12.20;99.90
32614;DHT22;19031;51.400;6.770;2023-04-15T13:39:41;12.10;99.90
32614;DHT22;19031;51.400;6.770;2023-04-15T13:42:07;12.10;99.90
32614;DHT22;19031;51.400;6.770;2023-04-15T13:44:33;12.00;99.90
32614;DHT22;19031;51.400;6.770;2023-04-15T13:46:59;12.00;99.90
32614;DHT22;19031;51.400;6.770;2023-04-15T13:49:24;12.00;99.90
32614;DHT22;19031;51.400;6.770;2023-04-15T13:51:50;12.10;99.90
32614;DHT22;19031;51.400;6.770;2023-04-15T13:54:16;12.10;99.90
32614;DHT22;19031;51.400;6.770;2023-04-15T13:56:42;12.10;99.90
32614;DHT22;19031;51.400;6.770;2023-04-15T13:59:07;11.90;99.90
32614;DHT22;19031;51.400;6.770;2023-04-15T14:01:34;11.90;99.90
32614;DHT22;19031;51.400;6.770;2023-04-15T14:04:00;11.90;99.90
32614;DHT22;19031;51.400;6.770;2023-04-15T14:06:26;12.10;99.90
32614;DHT22;19031;51.400;6.770;2023-04-15T14:08:52;12.10;99.90
32614;DHT22;19031;51.400;6.770;2023-04-15T14:11:18;12.10;99.90
32614;DHT22;19031;51.400;6.770;2023-04-15T14:13:44;12.20;99.90
32614;DHT22;19031;51.400;6.770;2023-04-15T14:16:10;12.10;99.90
32614;DHT22;19031;51.400;6.770;2023-04-15T14:18:36;12.10;99.90
32614;DHT22;19031;51.400;6.770;2023-04-15T14:21:02;12.20;99.90
32614;DHT22;19031;51.400;6.770;2023-04-15T14:23:28;12.00;99.90
32614;DHT22;19031;51.400;6.770;2023-04-15T14:25:53;12.00;99.90
32614;DHT22;19031;51.400;6.770;2023-04-15T14:28:19;11.90;99.90
32614;DHT22;19031;51.400;6.770;2023-04-15T14:30:45;11.80;99.90
32614;DHT22;19031;51.400;6.770;2023-04-15T14:33:10;11.80;99.90
32614;DHT22;19031;51.400;6.770;2023-04-15T14:35:36;11.70;99.90
32614;DHT22;19031;51.400;6.770;2023-04-15T14:38:02;11.70;99.90
32614;DHT22;19031;51.400;6.770;2023-04-15T14:40:28;11.70;99.90
32614;DHT22;19031;51.400;6.770;2023-04-15T14:42:53;11.70;99.90
32614;DHT22;19031;51.400;6.770;2023-04-15T14:45:19;11.70;99.90
32614;DHT22;19031;51.400;6.770;2023-04-15T14:47:45;11.80;99.90
32614;DHT22;19031;51.400;6.770;2023-04-15T14:50:11;11.90;99.90
32614;DHT22;19031;51.400;6.770;2023-04-15T14:52:37;11.90;99.90
32614;DHT22;19031;51.400;6.770;2023-04-15T14:55:09;11.90;99.90
32614;DHT22;19031;51.400;6.770;2023-04-15T14:57:36;12.00;99.90
32614;DHT22;19031;51.400;6.770;2023-04-15T15:00:03;11.90;99.90
32614;DHT22;19031;51.400;6.770;2023-04-15T15:02:29;11.80;99.90
32614;DHT22;19031;51.400;6.770;2023-04-15T15:04:56;11.70;99.90
32614;DHT22;19031;51.400;6.770;2023-04-15T15:07:22;11.50;99.90
32614;DHT22;19031;51.400;6.770;2023-04-15T15:09:48;11.50;99.90
32614;DHT22;19031;51.400;6.770;2023-04-15T15:12:13;11.50;99.90
32614;DHT22;19031;51.400;6.770;2023-04-15T15:14:39;11.30;99.90
32614;DHT22;19031;51.400;6.770;2023-04-15T15:17:05;11.20;99.90
32614;DHT22;19031;51.400;6.770;2023-04-15T15:19:30;11.30;99.90
32614;DHT22;19031;51.400;6.770;2023-04-15T15:21:56;11.30;99.90
32614;DHT22;19031;51.400;6.770;2023-04-15T15:24:22;11.30;99.90
32614;DHT22;19031;51.400;6.770;2023-04-15T15:26:47;11.30;99.90
32614;DHT22;19031;51.400;6.770;2023-04-15T15:29:13;11.30;99.90
32614;DHT22;19031;51.400;6.770;2023-04-15T15:31:38;11.20;99.90
32614;DHT22;19031;51.400;6.770;2023-04-15T15:34:04;11.20;99.90
32614;DHT22;19031;51.400;6.770;2023-04-15T15:36:30;11.20;99.90
32614;DHT22;19031;51.400;6.770;2023-04-15T15:38:56;11.00;99.90
32614;DHT22;19031;51.400;6.770;2023-04-15T15:41:22;11.00;99.90
32614;DHT22;19031;51.400;6.770;2023-04-15T15:43:49;10.90;99.90
32614;DHT22;19031;51.400;6.770;2023-04-15T15:46:15;10.90;99.90
32614;DHT22;19031;51.400;6.770;2023-04-15T15:48:41;10.90;99.90
32614;DHT22;19031;51.400;6.770;2023-04-15T15:51:07;10.90;99.90